createdAt,value
2023-05-12T00:00:07.259Z,2.45
2023-05-12T00:03:12.799Z,2.17
2023-05-12T00:06:05.880Z,3.13
2023-05-12T00:08:58.495Z,2.67
2023-05-12T00:11:51.481Z,2.90
2023-05-12T00:14:45.244Z,3.05
2023-05-12T00:17:40.931Z,2.47
2023-05-12T00:20:38.351Z,2.60
2023-05-12T00:23:36.654Z,2.80
2023-05-12T00:26:25.376Z,2.80
2023-05-12T00:29:11.824Z,2.87
2023-05-12T00:32:07.326Z,2.75
2023-05-12T00:34:54.812Z,2.60
2023-05-12T00:37:42.699Z,2.63
2023-05-12T00:40:29.732Z,2.50
2023-05-12T00:43:22.240Z,2.45
2023-05-12T00:46:13.767Z,2.78
2023-05-12T00:49:05.880Z,2.67
2023-05-12T00:51:52.234Z,2.67
2023-05-12T00:54:49.150Z,2.90
2023-05-12T00:57:35.306Z,3.33
2023-05-12T01:00:21.908Z,2.92
2023-05-12T01:03:09.322Z,2.85
2023-05-12T01:06:18.922Z,3.40
2023-05-12T01:09:06.161Z,3.13
2023-05-12T01:11:52.506Z,2.92
2023-05-12T01:14:41.440Z,2.67
2023-05-12T01:17:48.441Z,2.97
2023-05-12T01:23:35.834Z,3.30
2023-05-12T01:26:28.023Z,3.22
2023-05-12T01:29:20.704Z,3.65
2023-05-12T01:32:33.541Z,3.83
2023-05-12T01:35:55.513Z,3.15
2023-05-12T01:39:04.493Z,3.90
2023-05-12T01:42:08.696Z,3.42
2023-05-12T01:45:28.238Z,3.25
2023-05-12T01:48:21.928Z,3.33
2023-05-12T01:51:15.500Z,3.03
2023-05-12T01:54:06.909Z,3.17
2023-05-12T01:57:02.878Z,3.45
2023-05-12T01:59:58.515Z,3.33
2023-05-12T02:05:38.216Z,3.15
2023-05-12T02:08:37.481Z,3.47
2023-05-12T02:11:26.970Z,3.53
2023-05-12T02:14:13.297Z,3.83
2023-05-12T02:17:05.782Z,3.85
2023-05-12T02:19:56.640Z,4.68
2023-05-12T02:22:44.697Z,3.45
2023-05-12T02:25:42.339Z,3.90
2023-05-12T02:28:33.457Z,4.03
2023-05-12T02:31:29.948Z,5.22
2023-05-12T02:34:19.003Z,4.30
2023-05-12T02:37:10.261Z,4.15
2023-05-12T02:41:44.787Z,4.30
2023-05-12T02:44:30.129Z,3.85
2023-05-12T02:47:28.830Z,3.78
2023-05-12T02:50:27.648Z,3.85
2023-05-12T02:53:14.419Z,3.60
2023-05-12T02:56:01.402Z,3.72
2023-05-12T02:58:47.793Z,4.28
2023-05-12T03:01:40.044Z,3.88
2023-05-12T03:04:37.181Z,4.18
2023-05-12T03:07:24.420Z,4.30
2023-05-12T03:10:11.522Z,4.72
2023-05-12T03:13:02.302Z,4.88
2023-05-12T03:15:51.902Z,4.05
2023-05-12T03:18:39.081Z,4.22
2023-05-12T03:22:15.235Z,4.70
2023-05-12T03:24:40.226Z,4.10
2023-05-12T03:27:33.488Z,4.82
2023-05-12T03:30:24.686Z,5.00
2023-05-12T03:33:11.198Z,5.07
2023-05-12T03:36:07.680Z,4.78
2023-05-12T03:38:53.979Z,5.43
2023-05-12T03:41:40.264Z,5.07
2023-05-12T03:44:26.178Z,4.88
2023-05-12T03:47:12.850Z,4.88
2023-05-12T03:50:02.337Z,4.93
2023-05-12T03:52:55.568Z,4.93
2023-05-12T03:55:42.471Z,5.70
2023-05-12T03:58:32.220Z,5.03
2023-05-12T04:01:18.858Z,4.53
2023-05-12T04:04:05.483Z,4.53
2023-05-12T04:06:58.385Z,4.20
2023-05-12T04:09:49.085Z,5.18
2023-05-12T04:12:39.223Z,5.00
2023-05-12T04:15:29.218Z,4.45
2023-05-12T04:18:15.745Z,5.25
2023-05-12T04:21:02.773Z,4.15
2023-05-12T04:23:53.104Z,5.25
2023-05-12T04:26:48.103Z,5.35
2023-05-12T04:30:19.114Z,5.28
2023-05-12T04:34:31.055Z,4.35
2023-05-12T04:37:11.038Z,5.03
2023-05-12T04:39:57.580Z,5.30
2023-05-12T04:42:47.065Z,5.00
2023-05-12T04:45:38.196Z,5.53
2023-05-12T04:48:44.759Z,4.88
2023-05-12T04:51:54.027Z,5.88
2023-05-12T04:54:40.570Z,4.95
2023-05-12T04:57:34.374Z,5.00
2023-05-12T05:00:23.359Z,5.25
2023-05-12T05:03:12.331Z,5.32
2023-05-12T05:06:08.017Z,5.30
2023-05-12T05:08:59.341Z,5.72
2023-05-12T05:11:48.062Z,4.82
2023-05-12T05:14:38.411Z,5.70
2023-05-12T05:17:27.562Z,5.82
2023-05-12T05:23:06.716Z,4.63
2023-05-12T05:26:01.754Z,5.78
2023-05-12T05:29:09.085Z,5.43
2023-05-12T05:31:57.338Z,5.10
2023-05-12T05:34:44.131Z,5.80
2023-05-12T05:41:47.306Z,5.25
2023-05-12T05:44:33.602Z,5.82
2023-05-12T05:47:20.895Z,5.57
2023-05-12T05:50:09.335Z,5.53
2023-05-12T05:52:57.752Z,5.78
2023-05-12T05:55:46.808Z,5.60
2023-05-12T05:58:33.533Z,5.68
2023-05-12T06:01:30.586Z,4.90
2023-05-12T06:04:17.090Z,6.15
2023-05-12T06:07:03.022Z,6.53
2023-05-12T06:09:49.011Z,6.47
2023-05-12T06:12:35.809Z,6.88
2023-05-12T06:15:22.282Z,6.20
2023-05-12T06:18:09.212Z,5.75
2023-05-12T06:20:55.134Z,6.35
2023-05-12T06:23:41.635Z,6.32
2023-05-12T06:26:27.283Z,5.30
2023-05-12T06:29:15.289Z,5.85
2023-05-12T06:32:01.335Z,5.65
2023-05-12T06:34:47.606Z,4.93
2023-05-12T06:37:36.238Z,4.90
2023-05-12T06:40:22.121Z,3.75
2023-05-12T06:43:08.068Z,3.47
2023-05-12T06:45:57.189Z,3.90
2023-05-12T06:48:43.319Z,4.15
2023-05-12T06:51:29.316Z,3.47
2023-05-12T06:54:15.313Z,3.92
2023-05-12T06:57:03.661Z,3.42
2023-05-12T06:59:50.650Z,3.67
2023-05-12T07:02:36.798Z,3.47
2023-05-12T07:05:23.082Z,3.15
2023-05-12T07:08:09.052Z,2.60
2023-05-12T07:10:55.052Z,2.85
2023-05-12T07:13:41.014Z,2.65
2023-05-12T07:16:27.227Z,3.38
2023-05-12T07:19:13.872Z,2.50
2023-05-12T07:22:00.004Z,2.90
2023-05-12T07:24:48.022Z,2.95
2023-05-12T07:27:34.556Z,2.63
2023-05-12T07:30:22.439Z,3.35
2023-05-12T07:33:08.993Z,3.70
2023-05-12T07:35:55.021Z,3.10
2023-05-12T07:38:40.871Z,2.70
2023-05-12T07:41:27.211Z,2.00
2023-05-12T07:44:12.877Z,1.88
2023-05-12T07:47:01.333Z,2.50
2023-05-12T07:49:49.541Z,2.97
2023-05-12T07:52:35.668Z,2.70
2023-05-12T07:55:23.410Z,3.03
2023-05-12T07:58:09.913Z,3.03
2023-05-12T08:00:59.277Z,2.92
2023-05-12T08:03:46.144Z,3.13
2023-05-12T08:06:32.670Z,3.25
2023-05-12T08:09:21.998Z,3.50
2023-05-12T08:12:08.155Z,4.00
2023-05-12T08:14:54.322Z,3.45
2023-05-12T08:17:46.255Z,4.00
2023-05-12T08:20:32.399Z,3.70
2023-05-12T08:23:25.606Z,3.17
2023-05-12T08:26:15.470Z,3.53
2023-05-12T08:29:01.718Z,3.95
2023-05-12T08:31:47.654Z,3.20
2023-05-12T08:34:37.244Z,5.05
2023-05-12T08:37:23.229Z,4.60
2023-05-12T08:40:21.057Z,4.60
2023-05-12T08:43:27.134Z,4.40
2023-05-12T08:46:17.548Z,4.70
2023-05-12T08:49:05.484Z,4.37
2023-05-12T08:51:58.086Z,4.38
2023-05-12T08:54:55.627Z,4.18
2023-05-12T08:57:45.815Z,3.05
2023-05-12T09:00:36.250Z,2.88
2023-05-12T09:03:23.757Z,3.42
2023-05-12T09:06:13.666Z,3.30
2023-05-12T09:09:00.623Z,3.75
2023-05-12T09:11:49.474Z,3.47
2023-05-12T09:14:37.820Z,3.73
2023-05-12T09:17:23.533Z,4.27
2023-05-12T09:20:23.793Z,4.00
2023-05-12T09:23:21.861Z,3.17
2023-05-12T09:26:07.635Z,3.55
2023-05-12T09:28:56.299Z,3.47
2023-05-12T09:31:57.163Z,2.70
2023-05-12T09:34:44.278Z,2.20
2023-05-12T09:37:33.808Z,1.50
2023-05-12T09:40:19.844Z,1.48
2023-05-12T09:43:09.592Z,1.52
2023-05-12T09:45:55.774Z,1.55
2023-05-12T09:48:41.835Z,1.95
2023-05-12T09:51:28.445Z,1.70
2023-05-12T09:54:26.791Z,1.60
2023-05-12T09:57:17.039Z,1.70
2023-05-12T10:00:06.108Z,1.98
2023-05-12T10:02:59.971Z,2.13
2023-05-12T10:05:58.538Z,1.95
2023-05-12T10:09:11.681Z,2.00
2023-05-12T10:12:01.439Z,2.22
2023-05-12T10:14:48.140Z,1.83
2023-05-12T10:17:37.360Z,1.70
2023-05-12T10:20:23.972Z,1.90
2023-05-12T10:23:13.607Z,1.48
2023-05-12T10:31:37.899Z,2.03
2023-05-12T10:34:41.089Z,1.38
2023-05-12T10:37:29.799Z,1.02
2023-05-12T10:40:25.425Z,0.77
2023-05-12T10:43:25.547Z,0.70
2023-05-12T10:46:19.602Z,1.00
2023-05-12T10:49:13.026Z,0.95
2023-05-12T10:52:01.815Z,1.30
2023-05-12T10:54:49.232Z,0.77
2023-05-12T10:57:38.387Z,1.02
2023-05-12T11:00:29.075Z,0.65
2023-05-12T11:03:20.521Z,0.80
2023-05-12T11:06:08.722Z,0.70
2023-05-12T11:08:58.885Z,0.40
2023-05-12T11:11:48.350Z,0.60
2023-05-12T11:14:37.442Z,0.40
2023-05-12T11:17:23.092Z,0.50
2023-05-12T11:20:15.142Z,0.70
2023-05-12T11:23:01.380Z,1.00
2023-05-12T11:25:49.874Z,1.08
2023-05-12T11:28:42.344Z,1.00
2023-05-12T11:31:28.102Z,0.85
2023-05-12T11:34:13.823Z,1.17
2023-05-12T11:37:00.681Z,1.10
2023-05-12T11:39:46.810Z,1.10
2023-05-12T11:42:34.681Z,1.58
2023-05-12T11:45:34.372Z,1.55
2023-05-12T11:48:21.740Z,1.38
2023-05-12T11:51:08.930Z,1.77
2023-05-12T11:53:55.728Z,2.00
2023-05-12T11:56:52.378Z,1.40
2023-05-12T11:59:37.970Z,1.65
2023-05-12T12:02:26.306Z,1.60
2023-05-12T12:05:21.299Z,1.73
2023-05-12T12:08:13.326Z,1.15
2023-05-12T12:11:01.983Z,1.50
2023-05-12T12:13:56.787Z,1.30
2023-05-12T12:16:42.541Z,1.80
2023-05-12T12:19:28.785Z,1.80
2023-05-12T12:22:14.962Z,1.90
2023-05-12T12:25:02.088Z,1.90
2023-05-12T12:27:49.627Z,1.40
2023-05-12T12:30:35.701Z,1.35
2023-05-12T12:33:22.149Z,1.40
2023-05-12T12:36:08.372Z,1.30
2023-05-12T12:38:54.788Z,1.30
2023-05-12T12:41:40.483Z,1.50
2023-05-12T12:44:26.206Z,1.23
2023-05-12T12:47:12.295Z,1.67
2023-05-12T12:49:58.851Z,1.02
2023-05-12T12:52:44.685Z,1.00
2023-05-12T12:55:30.741Z,1.38
2023-05-12T12:58:16.760Z,1.30
2023-05-12T13:01:02.857Z,1.50
2023-05-12T13:03:49.160Z,1.45
2023-05-12T13:06:35.348Z,0.98
2023-05-12T13:09:21.106Z,1.15
2023-05-12T13:12:08.121Z,1.42
2023-05-12T13:14:53.853Z,1.33
2023-05-12T13:17:40.491Z,1.48
2023-05-12T13:20:28.000Z,1.38
2023-05-12T13:23:15.023Z,1.33
2023-05-12T13:26:00.784Z,1.25
2023-05-12T13:28:46.650Z,1.13
2023-05-12T13:31:32.321Z,1.13
2023-05-12T13:34:18.269Z,1.17
2023-05-12T13:37:04.548Z,1.30
2023-05-12T13:39:51.198Z,1.15
2023-05-12T13:42:39.634Z,1.33
2023-05-12T13:45:25.915Z,1.40
2023-05-12T13:48:12.373Z,1.55
2023-05-12T13:50:58.704Z,2.03
2023-05-12T13:53:44.728Z,2.63
2023-05-12T13:56:33.813Z,1.92
2023-05-12T13:59:20.103Z,2.40
2023-05-12T14:02:09.835Z,2.90
2023-05-12T14:04:56.839Z,2.75
2023-05-12T14:07:42.730Z,2.20
2023-05-12T14:10:30.865Z,3.05
2023-05-12T14:13:20.382Z,2.47
2023-05-12T14:16:09.191Z,2.95
2023-05-12T14:18:55.766Z,3.08
2023-05-12T14:21:42.178Z,3.15
2023-05-12T14:24:29.104Z,3.28
2023-05-12T14:27:16.593Z,3.45
2023-05-12T14:30:04.023Z,2.90
2023-05-12T14:32:50.687Z,3.10
2023-05-12T14:35:38.968Z,3.17
2023-05-12T14:38:25.226Z,2.92
2023-05-12T14:41:11.313Z,2.97
2023-05-12T14:43:58.041Z,3.47
2023-05-12T14:46:44.062Z,3.25
2023-05-12T14:49:30.279Z,3.28
2023-05-12T14:52:16.491Z,3.72
2023-05-12T14:55:02.910Z,3.30
2023-05-12T14:57:50.283Z,3.55
2023-05-12T15:00:37.779Z,2.92
2023-05-12T15:03:24.667Z,2.80
2023-05-12T15:06:11.651Z,2.47
2023-05-12T15:08:57.843Z,2.50
2023-05-12T15:11:47.268Z,3.80
2023-05-12T15:14:33.151Z,3.40
2023-05-12T15:17:19.083Z,3.40
2023-05-12T15:20:08.396Z,3.80
2023-05-12T15:22:54.922Z,3.95
2023-05-12T15:25:41.267Z,3.97
2023-05-12T15:28:28.076Z,3.85
2023-05-12T15:31:14.004Z,4.07
2023-05-12T15:34:00.627Z,3.58
2023-05-12T15:36:48.735Z,3.47
2023-05-12T15:39:35.087Z,4.15
2023-05-12T15:42:26.190Z,3.58
2023-05-12T15:45:15.859Z,3.17
2023-05-12T15:48:02.224Z,4.13
2023-05-12T15:50:49.253Z,4.03
2023-05-12T15:53:35.485Z,3.65
2023-05-12T15:56:23.468Z,3.33
2023-05-12T15:59:11.535Z,3.83
2023-05-12T16:01:58.603Z,3.38
2023-05-12T16:04:45.670Z,4.10
2023-05-12T16:07:32.083Z,3.70
2023-05-12T16:10:18.003Z,3.78
2023-05-12T16:13:04.237Z,3.50
2023-05-12T16:15:51.469Z,3.40
2023-05-12T16:18:40.364Z,2.97
2023-05-12T16:21:26.190Z,3.42
2023-05-12T16:24:12.409Z,3.33
2023-05-12T16:26:59.495Z,3.75
2023-05-12T16:29:47.738Z,3.58
2023-05-12T16:32:34.009Z,3.35
2023-05-12T16:35:21.307Z,4.78
2023-05-12T16:38:07.210Z,4.60
2023-05-12T16:40:53.221Z,3.50
2023-05-12T16:43:39.788Z,3.50
2023-05-12T16:46:28.318Z,3.53
2023-05-12T16:49:15.028Z,3.83
2023-05-12T16:52:01.088Z,3.33
2023-05-12T16:54:47.958Z,3.53
2023-05-12T16:57:36.365Z,3.63
2023-05-12T17:00:22.760Z,3.60
2023-05-12T17:03:09.126Z,3.28
2023-05-12T17:05:55.292Z,3.55
2023-05-12T17:08:42.916Z,3.20
2023-05-12T17:11:28.813Z,3.58
2023-05-12T17:14:14.478Z,3.70
2023-05-12T17:17:00.967Z,3.92
2023-05-12T17:19:46.813Z,4.63
2023-05-12T17:22:52.393Z,3.95
2023-05-12T17:25:44.133Z,3.78
2023-05-12T17:28:33.290Z,3.78
2023-05-12T17:31:19.750Z,3.53
2023-05-12T17:34:08.065Z,3.65
2023-05-12T17:36:57.219Z,3.17
2023-05-12T17:39:48.517Z,3.13
2023-05-12T17:42:40.133Z,2.78
2023-05-12T17:45:31.433Z,2.53
2023-05-12T17:48:19.097Z,2.70
2023-05-12T17:51:06.416Z,2.60
2023-05-12T17:53:56.520Z,2.42
2023-05-12T17:56:44.789Z,2.28
2023-05-12T17:59:30.858Z,2.22
2023-05-12T18:02:18.676Z,2.60
2023-05-12T18:05:09.984Z,2.05
2023-05-12T18:07:56.592Z,2.25
2023-05-12T18:10:42.537Z,2.45
2023-05-12T18:13:35.867Z,2.28
2023-05-12T18:16:29.952Z,4.90
2023-05-12T18:19:16.248Z,2.95
2023-05-12T18:22:02.297Z,2.80
2023-05-12T18:24:51.195Z,2.40
2023-05-12T18:27:38.684Z,1.85
2023-05-12T18:30:25.112Z,2.00
2023-05-12T18:33:12.661Z,2.08
2023-05-12T18:35:58.676Z,2.45
2023-05-12T18:38:48.152Z,2.20
2023-05-12T18:41:34.296Z,2.40
2023-05-12T18:45:07.984Z,2.17
2023-05-12T18:47:33.652Z,2.42
2023-05-12T18:50:24.289Z,2.45
2023-05-12T18:53:21.625Z,2.40
2023-05-12T18:56:09.424Z,2.30
2023-05-12T18:59:00.149Z,2.03
2023-05-12T19:01:48.703Z,1.75
2023-05-12T19:04:38.588Z,1.80
2023-05-12T19:07:24.818Z,1.95
2023-05-12T19:10:16.153Z,2.05
2023-05-12T19:13:14.917Z,2.13
2023-05-12T19:16:06.933Z,1.67
2023-05-12T19:18:53.338Z,1.58
2023-05-12T19:21:50.387Z,2.00
2023-05-12T19:24:39.335Z,1.73
2023-05-12T19:27:29.333Z,2.40
2023-05-12T19:30:18.155Z,2.10
2023-05-12T19:33:04.452Z,1.75
2023-05-12T19:35:56.008Z,1.90
2023-05-12T19:38:44.748Z,1.80
2023-05-12T19:41:41.590Z,1.50
2023-05-12T19:44:30.254Z,2.42
2023-05-12T19:47:19.324Z,2.00
2023-05-12T19:50:06.363Z,2.20
2023-05-12T19:52:52.416Z,1.70
2023-05-12T19:55:40.003Z,1.80
2023-05-12T19:58:29.022Z,2.35
2023-05-12T20:01:17.590Z,2.00
2023-05-12T20:04:06.219Z,1.80
2023-05-12T20:06:59.302Z,2.00
2023-05-12T20:09:45.150Z,2.15
2023-05-12T20:12:30.948Z,1.83
2023-05-12T20:15:17.269Z,1.85
2023-05-12T20:18:03.381Z,1.83
2023-05-12T20:20:51.948Z,2.47
2023-05-12T20:23:37.970Z,1.83
2023-05-12T20:26:30.721Z,1.77
2023-05-12T20:29:21.036Z,1.90
2023-05-12T20:32:07.815Z,2.00
2023-05-12T20:34:54.002Z,1.48
2023-05-12T20:37:41.251Z,1.95
2023-05-12T20:40:28.674Z,1.80
2023-05-12T20:43:15.976Z,1.45
2023-05-12T20:46:07.350Z,1.70
2023-05-12T20:48:52.971Z,1.75
2023-05-12T20:51:39.298Z,2.03
2023-05-12T20:54:28.118Z,1.70
2023-05-12T20:57:14.402Z,2.20
2023-05-12T21:00:00.651Z,1.58
2023-05-12T21:02:49.508Z,1.98
2023-05-12T21:05:45.220Z,1.83
2023-05-12T21:08:31.316Z,1.75
2023-05-12T21:11:32.576Z,1.67
2023-05-12T21:14:19.750Z,2.05
2023-05-12T21:17:08.434Z,1.90
2023-05-12T21:19:56.883Z,1.70
2023-05-12T21:22:42.987Z,1.98
2023-05-12T21:25:32.641Z,1.85
2023-05-12T21:28:26.347Z,1.80
2023-05-12T21:31:17.085Z,1.95
2023-05-12T21:34:03.456Z,1.65
2023-05-12T21:36:55.476Z,2.05
2023-05-12T21:39:41.651Z,2.08
2023-05-12T21:42:27.840Z,2.25
2023-05-12T21:45:15.205Z,2.10
2023-05-12T21:48:01.215Z,1.75
2023-05-12T21:50:59.082Z,2.03
2023-05-12T21:53:46.446Z,2.05
2023-05-12T21:56:34.884Z,2.05
2023-05-12T21:59:27.504Z,1.77
2023-05-12T22:02:16.246Z,1.83
2023-05-12T22:05:06.190Z,1.83
2023-05-12T22:07:56.202Z,2.05
2023-05-12T22:10:44.831Z,1.70
2023-05-12T22:13:30.820Z,2.00
2023-05-12T22:16:19.863Z,2.40
2023-05-12T22:19:11.391Z,2.10
2023-05-12T22:22:01.217Z,2.00
2023-05-12T22:24:47.472Z,2.38
2023-05-12T22:27:38.471Z,2.17
2023-05-12T22:30:27.069Z,2.00
2023-05-12T22:33:17.108Z,2.00
2023-05-12T22:36:03.296Z,2.10
2023-05-12T22:38:51.688Z,1.80
2023-05-12T22:41:40.809Z,1.85
2023-05-12T22:44:26.797Z,2.47
2023-05-12T22:47:12.977Z,2.05
2023-05-12T22:50:00.301Z,2.05
2023-05-12T22:52:58.118Z,2.47
2023-05-12T22:55:53.829Z,1.90
2023-05-12T22:58:47.070Z,2.20
2023-05-12T23:01:33.544Z,2.50
2023-05-12T23:04:20.061Z,2.53
2023-05-12T23:07:09.833Z,2.90
2023-05-12T23:09:55.940Z,2.47
2023-05-12T23:12:47.313Z,2.25
2023-05-12T23:15:33.474Z,2.20
2023-05-12T23:18:23.008Z,2.23
2023-05-12T23:21:09.233Z,2.50
2023-05-12T23:24:09.632Z,2.50
2023-05-12T23:26:58.407Z,2.30
2023-05-12T23:29:47.566Z,2.15
2023-05-12T23:32:33.615Z,1.83
2023-05-12T23:35:19.474Z,2.03
2023-05-12T23:38:12.902Z,1.90
2023-05-12T23:41:00.267Z,1.95
2023-05-12T23:43:46.464Z,2.10
2023-05-12T23:46:32.919Z,1.88
2023-05-12T23:49:25.760Z,2.10
2023-05-12T23:52:11.670Z,1.90
2023-05-12T23:54:57.873Z,1.60
2023-05-12T23:57:46.632Z,1.50
